sensor_id;sensor_type;location;lat;lon;timestamp;P1;durP1;ratioP1;P2;durP2;ratioP2
41629;SDS011;27322;49.488;8.480;2023-07-13T00:01:50;2.33;;;0.70;;
41629;SDS011;27322;49.488;8.480;2023-07-13T00:04:17;2.08;;;0.80;;
41629;SDS011;27322;49.488;8.480;2023-07-13T00:06:44;4.07;;;0.90;;
41629;SDS011;27322;49.488;8.480;2023-07-13T00:09:14;4.63;;;0.90;;
41629;SDS011;27322;49.488;8.480;2023-07-13T00:11:41;4.35;;;0.80;;
41629;SDS011;27322;49.488;8.480;2023-07-13T00:14:09;2.03;;;0.75;;
41629;SDS011;27322;49.488;8.480;2023-07-13T00:16:35;3.15;;;0.80;;
41629;SDS011;27322;49.488;8.480;2023-07-13T00:19:02;2.47;;;1.00;;
41629;SDS011;27322;49.488;8.480;2023-07-13T00:21:28;2.63;;;0.70;;
41629;SDS011;27322;49.488;8.480;2023-07-13T00:23:53;3.53;;;0.80;;
41629;SDS011;27322;49.488;8.480;2023-07-13T00:26:19;2.53;;;0.70;;
41629;SDS011;27322;49.488;8.480;2023-07-13T00:28:44;2.97;;;0.77;;
41629;SDS011;27322;49.488;8.480;2023-07-13T00:31:11;2.05;;;0.70;;
41629;SDS011;27322;49.488;8.480;2023-07-13T00:33:37;4.43;;;0.85;;
41629;SDS011;27322;49.488;8.480;2023-07-13T00:36:03;3.30;;;0.88;;
41629;SDS011;27322;49.488;8.480;2023-07-13T00:38:29;2.53;;;0.90;;
41629;SDS011;27322;49.488;8.480;2023-07-13T00:40:55;3.10;;;0.90;;
41629;SDS011;27322;49.488;8.480;2023-07-13T00:43:21;2.85;;;0.95;;
41629;SDS011;27322;49.488;8.480;2023-07-13T00:48:14;2.28;;;0.80;;
41629;SDS011;27322;49.488;8.480;2023-07-13T00:50:43;1.52;;;0.70;;
41629;SDS011;27322;49.488;8.480;2023-07-13T00:53:11;1.83;;;0.80;;
41629;SDS011;27322;49.488;8.480;2023-07-13T00:55:37;2.95;;;1.08;;
41629;SDS011;27322;49.488;8.480;2023-07-13T00:58:04;5.07;;;0.90;;
41629;SDS011;27322;49.488;8.480;2023-07-13T01:00:31;3.67;;;0.90;;
41629;SDS011;27322;49.488;8.480;2023-07-13T01:03:00;3.63;;;0.90;;
41629;SDS011;27322;49.488;8.480;2023-07-13T01:05:29;2.97;;;0.90;;
41629;SDS011;27322;49.488;8.480;2023-07-13T01:07:57;5.25;;;0.82;;
41629;SDS011;27322;49.488;8.480;2023-07-13T01:10:24;3.30;;;0.90;;
41629;SDS011;27322;49.488;8.480;2023-07-13T01:12:50;2.47;;;0.90;;
41629;SDS011;27322;49.488;8.480;2023-07-13T01:15:36;2.63;;;1.00;;
41629;SDS011;27322;49.488;8.480;2023-07-13T01:18:02;2.95;;;1.08;;
41629;SDS011;27322;49.488;8.480;2023-07-13T01:20:30;1.90;;;0.80;;
41629;SDS011;27322;49.488;8.480;2023-07-13T01:22:55;3.45;;;1.00;;
41629;SDS011;27322;49.488;8.480;2023-07-13T01:25:21;2.08;;;0.80;;
41629;SDS011;27322;49.488;8.480;2023-07-13T01:27:46;2.30;;;0.90;;
41629;SDS011;27322;49.488;8.480;2023-07-13T01:30:12;1.88;;;0.90;;
41629;SDS011;27322;49.488;8.480;2023-07-13T01:32:38;4.18;;;1.00;;
41629;SDS011;27322;49.488;8.480;2023-07-13T01:35:06;4.40;;;1.00;;
41629;SDS011;27322;49.488;8.480;2023-07-13T01:37:32;4.20;;;1.13;;
41629;SDS011;27322;49.488;8.480;2023-07-13T01:39:58;3.78;;;1.10;;
41629;SDS011;27322;49.488;8.480;2023-07-13T01:42:25;3.17;;;1.10;;
41629;SDS011;27322;49.488;8.480;2023-07-13T01:44:50;3.40;;;1.02;;
41629;SDS011;27322;49.488;8.480;2023-07-13T01:47:16;5.55;;;1.00;;
41629;SDS011;27322;49.488;8.480;2023-07-13T01:49:41;2.85;;;0.90;;
41629;SDS011;27322;49.488;8.480;2023-07-13T01:52:07;2.55;;;0.80;;
41629;SDS011;27322;49.488;8.480;2023-07-13T01:54:33;2.72;;;1.00;;
41629;SDS011;27322;49.488;8.480;2023-07-13T01:56:59;4.63;;;0.90;;
41629;SDS011;27322;49.488;8.480;2023-07-13T01:59:24;3.60;;;1.02;;
41629;SDS011;27322;49.488;8.480;2023-07-13T02:01:50;1.92;;;0.80;;
41629;SDS011;27322;49.488;8.480;2023-07-13T02:04:16;2.47;;;0.80;;
41629;SDS011;27322;49.488;8.480;2023-07-13T02:06:41;3.03;;;0.95;;
41629;SDS011;27322;49.488;8.480;2023-07-13T02:09:07;2.15;;;1.00;;
41629;SDS011;27322;49.488;8.480;2023-07-13T02:11:32;3.30;;;1.10;;
41629;SDS011;27322;49.488;8.480;2023-07-13T02:14:01;2.38;;;0.82;;
41629;SDS011;27322;49.488;8.480;2023-07-13T02:16:28;2.28;;;0.80;;
41629;SDS011;27322;49.488;8.480;2023-07-13T02:18:54;2.20;;;1.00;;
41629;SDS011;27322;49.488;8.480;2023-07-13T02:21:20;2.80;;;1.00;;
41629;SDS011;27322;49.488;8.480;2023-07-13T02:23:47;5.22;;;1.20;;
41629;SDS011;27322;49.488;8.480;2023-07-13T02:26:12;2.33;;;0.90;;
41629;SDS011;27322;49.488;8.480;2023-07-13T02:28:38;3.10;;;1.00;;
41629;SDS011;27322;49.488;8.480;2023-07-13T02:31:04;3.15;;;1.30;;
41629;SDS011;27322;49.488;8.480;2023-07-13T02:33:34;3.05;;;0.90;;
41629;SDS011;27322;49.488;8.480;2023-07-13T02:36:00;2.03;;;1.00;;
41629;SDS011;27322;49.488;8.480;2023-07-13T02:38:26;3.20;;;1.20;;
41629;SDS011;27322;49.488;8.480;2023-07-13T02:40:52;5.63;;;1.42;;
41629;SDS011;27322;49.488;8.480;2023-07-13T02:43:18;3.63;;;1.10;;
41629;SDS011;27322;49.488;8.480;2023-07-13T02:45:43;2.80;;;1.10;;
41629;SDS011;27322;49.488;8.480;2023-07-13T02:48:10;2.90;;;1.23;;
41629;SDS011;27322;49.488;8.480;2023-07-13T02:50:35;6.43;;;1.45;;
41629;SDS011;27322;49.488;8.480;2023-07-13T02:53:01;4.78;;;1.50;;
41629;SDS011;27322;49.488;8.480;2023-07-13T02:55:27;5.80;;;1.50;;
41629;SDS011;27322;49.488;8.480;2023-07-13T02:57:52;4.13;;;1.48;;
41629;SDS011;27322;49.488;8.480;2023-07-13T03:00:19;3.78;;;1.45;;
41629;SDS011;27322;49.488;8.480;2023-07-13T03:02:46;4.40;;;1.50;;
41629;SDS011;27322;49.488;8.480;2023-07-13T03:05:11;4.35;;;1.35;;
41629;SDS011;27322;49.488;8.480;2023-07-13T03:07:37;6.32;;;1.60;;
41629;SDS011;27322;49.488;8.480;2023-07-13T03:10:04;4.72;;;1.33;;
41629;SDS011;27322;49.488;8.480;2023-07-13T03:12:31;4.07;;;1.33;;
41629;SDS011;27322;49.488;8.480;2023-07-13T03:14:57;4.28;;;1.50;;
41629;SDS011;27322;49.488;8.480;2023-07-13T03:17:23;3.70;;;1.13;;
41629;SDS011;27322;49.488;8.480;2023-07-13T03:19:49;3.33;;;1.23;;
41629;SDS011;27322;49.488;8.480;2023-07-13T03:22:18;4.40;;;1.30;;
41629;SDS011;27322;49.488;8.480;2023-07-13T03:24:44;5.03;;;1.10;;
41629;SDS011;27322;49.488;8.480;2023-07-13T03:27:10;5.50;;;1.60;;
41629;SDS011;27322;49.488;8.480;2023-07-13T03:29:36;6.50;;;1.40;;
41629;SDS011;27322;49.488;8.480;2023-07-13T03:32:02;4.05;;;1.13;;
41629;SDS011;27322;49.488;8.480;2023-07-13T03:34:29;5.85;;;1.20;;
41629;SDS011;27322;49.488;8.480;2023-07-13T03:36:55;7.10;;;1.38;;
41629;SDS011;27322;49.488;8.480;2023-07-13T03:39:21;4.13;;;1.38;;
41629;SDS011;27322;49.488;8.480;2023-07-13T03:41:47;4.93;;;1.50;;
41629;SDS011;27322;49.488;8.480;2023-07-13T03:44:13;5.22;;;1.40;;
41629;SDS011;27322;49.488;8.480;2023-07-13T03:46:41;3.10;;;1.33;;
41629;SDS011;27322;49.488;8.480;2023-07-13T03:49:06;3.65;;;1.27;;
41629;SDS011;27322;49.488;8.480;2023-07-13T03:51:34;3.78;;;1.45;;
41629;SDS011;27322;49.488;8.480;2023-07-13T03:53:59;3.08;;;1.27;;
41629;SDS011;27322;49.488;8.480;2023-07-13T03:56:25;4.40;;;1.50;;
41629;SDS011;27322;49.488;8.480;2023-07-13T03:58:50;3.85;;;1.35;;
41629;SDS011;27322;49.488;8.480;2023-07-13T04:01:17;3.40;;;1.52;;
41629;SDS011;27322;49.488;8.480;2023-07-13T04:03:44;6.15;;;1.95;;
41629;SDS011;27322;49.488;8.480;2023-07-13T04:06:18;3.25;;;1.38;;
41629;SDS011;27322;49.488;8.480;2023-07-13T04:08:49;3.92;;;1.60;;
41629;SDS011;27322;49.488;8.480;2023-07-13T04:11:20;4.53;;;1.40;;
41629;SDS011;27322;49.488;8.480;2023-07-13T04:13:47;4.53;;;1.70;;
41629;SDS011;27322;49.488;8.480;2023-07-13T04:16:14;5.13;;;1.63;;
41629;SDS011;27322;49.488;8.480;2023-07-13T04:18:41;3.55;;;1.40;;
41629;SDS011;27322;49.488;8.480;2023-07-13T04:21:06;6.97;;;1.55;;
41629;SDS011;27322;49.488;8.480;2023-07-13T04:23:33;3.92;;;1.40;;
41629;SDS011;27322;49.488;8.480;2023-07-13T04:25:59;3.63;;;1.65;;
41629;SDS011;27322;49.488;8.480;2023-07-13T04:28:25;3.17;;;1.23;;
41629;SDS011;27322;49.488;8.480;2023-07-13T04:30:51;4.13;;;1.35;;
41629;SDS011;27322;49.488;8.480;2023-07-13T04:33:17;4.45;;;1.50;;
41629;SDS011;27322;49.488;8.480;2023-07-13T04:35:47;3.92;;;1.27;;
41629;SDS011;27322;49.488;8.480;2023-07-13T04:38:13;5.25;;;1.60;;
41629;SDS011;27322;49.488;8.480;2023-07-13T04:40:41;4.63;;;1.58;;
41629;SDS011;27322;49.488;8.480;2023-07-13T04:43:09;5.88;;;1.70;;
41629;SDS011;27322;49.488;8.480;2023-07-13T04:45:35;5.97;;;1.83;;
41629;SDS011;27322;49.488;8.480;2023-07-13T04:48:01;3.80;;;1.70;;
41629;SDS011;27322;49.488;8.480;2023-07-13T04:50:27;5.28;;;1.80;;
41629;SDS011;27322;49.488;8.480;2023-07-13T04:52:53;7.28;;;2.28;;
41629;SDS011;27322;49.488;8.480;2023-07-13T04:55:19;4.15;;;1.92;;
41629;SDS011;27322;49.488;8.480;2023-07-13T04:57:45;9.60;;;2.42;;
41629;SDS011;27322;49.488;8.480;2023-07-13T05:00:11;5.30;;;2.53;;
41629;SDS011;27322;49.488;8.480;2023-07-13T05:02:38;6.53;;;2.85;;
41629;SDS011;27322;49.488;8.480;2023-07-13T05:05:04;7.90;;;2.55;;
41629;SDS011;27322;49.488;8.480;2023-07-13T05:07:31;6.55;;;2.33;;
41629;SDS011;27322;49.488;8.480;2023-07-13T05:09:58;6.05;;;2.30;;
41629;SDS011;27322;49.488;8.480;2023-07-13T05:12:24;6.95;;;2.30;;
41629;SDS011;27322;49.488;8.480;2023-07-13T05:14:50;5.22;;;2.30;;
41629;SDS011;27322;49.488;8.480;2023-07-13T05:17:16;8.68;;;2.20;;
41629;SDS011;27322;49.488;8.480;2023-07-13T05:19:41;5.45;;;2.42;;
41629;SDS011;27322;49.488;8.480;2023-07-13T05:22:07;7.53;;;2.17;;
41629;SDS011;27322;49.488;8.480;2023-07-13T05:24:33;9.15;;;2.03;;
41629;SDS011;27322;49.488;8.480;2023-07-13T05:26:58;5.95;;;1.90;;
41629;SDS011;27322;49.488;8.480;2023-07-13T05:29:24;8.65;;;1.85;;
41629;SDS011;27322;49.488;8.480;2023-07-13T05:31:50;6.10;;;1.85;;
41629;SDS011;27322;49.488;8.480;2023-07-13T05:34:15;14.18;;;2.10;;
41629;SDS011;27322;49.488;8.480;2023-07-13T05:36:41;12.07;;;2.30;;
41629;SDS011;27322;49.488;8.480;2023-07-13T05:39:07;9.52;;;2.00;;
41629;SDS011;27322;49.488;8.480;2023-07-13T05:41:33;5.15;;;1.50;;
41629;SDS011;27322;49.488;8.480;2023-07-13T05:43:58;8.68;;;1.85;;
41629;SDS011;27322;49.488;8.480;2023-07-13T05:46:24;8.10;;;2.00;;
41629;SDS011;27322;49.488;8.480;2023-07-13T05:48:50;8.65;;;2.33;;
41629;SDS011;27322;49.488;8.480;2023-07-13T05:51:15;6.38;;;1.92;;
41629;SDS011;27322;49.488;8.480;2023-07-13T05:53:41;8.02;;;1.95;;
41629;SDS011;27322;49.488;8.480;2023-07-13T05:56:07;8.65;;;1.80;;
41629;SDS011;27322;49.488;8.480;2023-07-13T05:58:32;7.25;;;2.00;;
41629;SDS011;27322;49.488;8.480;2023-07-13T06:01:01;7.90;;;1.80;;
41629;SDS011;27322;49.488;8.480;2023-07-13T06:03:28;6.43;;;1.70;;
41629;SDS011;27322;49.488;8.480;2023-07-13T06:05:54;7.43;;;1.80;;
41629;SDS011;27322;49.488;8.480;2023-07-13T06:08:20;9.55;;;1.80;;
41629;SDS011;27322;49.488;8.480;2023-07-13T06:10:45;5.68;;;1.88;;
41629;SDS011;27322;49.488;8.480;2023-07-13T06:13:11;11.25;;;1.70;;
41629;SDS011;27322;49.488;8.480;2023-07-13T06:15:36;11.90;;;1.70;;
41629;SDS011;27322;49.488;8.480;2023-07-13T06:18:02;6.45;;;1.92;;
41629;SDS011;27322;49.488;8.480;2023-07-13T06:20:28;8.38;;;1.70;;
41629;SDS011;27322;49.488;8.480;2023-07-13T06:22:54;10.75;;;1.77;;
41629;SDS011;27322;49.488;8.480;2023-07-13T06:25:19;5.97;;;1.30;;
41629;SDS011;27322;49.488;8.480;2023-07-13T06:27:45;6.07;;;1.65;;
41629;SDS011;27322;49.488;8.480;2023-07-13T06:30:11;8.18;;;1.50;;
41629;SDS011;27322;49.488;8.480;2023-07-13T06:32:37;7.13;;;1.35;;
41629;SDS011;27322;49.488;8.480;2023-07-13T06:35:03;4.32;;;1.23;;
41629;SDS011;27322;49.488;8.480;2023-07-13T06:37:29;3.72;;;1.00;;
41629;SDS011;27322;49.488;8.480;2023-07-13T06:39:54;5.65;;;1.30;;
41629;SDS011;27322;49.488;8.480;2023-07-13T06:42:20;6.55;;;1.45;;
41629;SDS011;27322;49.488;8.480;2023-07-13T06:44:45;7.18;;;1.60;;
41629;SDS011;27322;49.488;8.480;2023-07-13T06:47:11;4.93;;;1.10;;
41629;SDS011;27322;49.488;8.480;2023-07-13T06:49:37;4.90;;;1.30;;
41629;SDS011;27322;49.488;8.480;2023-07-13T06:52:03;6.50;;;1.17;;
41629;SDS011;27322;49.488;8.480;2023-07-13T06:54:29;3.47;;;1.05;;
41629;SDS011;27322;49.488;8.480;2023-07-13T06:56:54;4.00;;;1.00;;
41629;SDS011;27322;49.488;8.480;2023-07-13T06:59:20;7.10;;;1.25;;
41629;SDS011;27322;49.488;8.480;2023-07-13T07:01:45;5.55;;;0.73;;
41629;SDS011;27322;49.488;8.480;2023-07-13T07:04:11;7.05;;;1.10;;
41629;SDS011;27322;49.488;8.480;2023-07-13T07:06:36;3.63;;;0.82;;
41629;SDS011;27322;49.488;8.480;2023-07-13T07:09:02;5.13;;;1.00;;
41629;SDS011;27322;49.488;8.480;2023-07-13T07:11:28;3.75;;;0.98;;
41629;SDS011;27322;49.488;8.480;2023-07-13T07:13:56;6.68;;;1.00;;
41629;SDS011;27322;49.488;8.480;2023-07-13T07:16:24;4.38;;;0.90;;
41629;SDS011;27322;49.488;8.480;2023-07-13T07:18:50;4.10;;;1.02;;
41629;SDS011;27322;49.488;8.480;2023-07-13T07:21:15;3.78;;;0.80;;
41629;SDS011;27322;49.488;8.480;2023-07-13T07:23:42;2.38;;;0.93;;
41629;SDS011;27322;49.488;8.480;2023-07-13T07:26:08;4.85;;;1.17;;
41629;SDS011;27322;49.488;8.480;2023-07-13T07:28:35;3.60;;;0.93;;
41629;SDS011;27322;49.488;8.480;2023-07-13T07:31:01;4.05;;;1.02;;
41629;SDS011;27322;49.488;8.480;2023-07-13T07:33:26;3.30;;;1.20;;
41629;SDS011;27322;49.488;8.480;2023-07-13T07:35:52;4.32;;;1.00;;
41629;SDS011;27322;49.488;8.480;2023-07-13T07:38:18;4.85;;;1.08;;
41629;SDS011;27322;49.488;8.480;2023-07-13T07:40:44;3.20;;;0.90;;
41629;SDS011;27322;49.488;8.480;2023-07-13T07:43:10;3.97;;;1.00;;
41629;SDS011;27322;49.488;8.480;2023-07-13T07:45:37;5.75;;;1.10;;
41629;SDS011;27322;49.488;8.480;2023-07-13T07:48:04;4.60;;;1.10;;
41629;SDS011;27322;49.488;8.480;2023-07-13T07:50:30;4.35;;;1.20;;
41629;SDS011;27322;49.488;8.480;2023-07-13T07:52:56;2.72;;;0.90;;
41629;SDS011;27322;49.488;8.480;2023-07-13T07:55:22;4.28;;;1.20;;
41629;SDS011;27322;49.488;8.480;2023-07-13T07:57:50;4.68;;;1.17;;
41629;SDS011;27322;49.488;8.480;2023-07-13T08:00:16;4.55;;;1.15;;
41629;SDS011;27322;49.488;8.480;2023-07-13T08:02:43;4.93;;;0.90;;
41629;SDS011;27322;49.488;8.480;2023-07-13T08:05:10;2.65;;;0.90;;
41629;SDS011;27322;49.488;8.480;2023-07-13T08:07:36;4.70;;;1.10;;
41629;SDS011;27322;49.488;8.480;2023-07-13T08:10:03;3.03;;;0.82;;
41629;SDS011;27322;49.488;8.480;2023-07-13T08:12:33;3.67;;;1.10;;
41629;SDS011;27322;49.488;8.480;2023-07-13T08:15:03;4.65;;;1.13;;
41629;SDS011;27322;49.488;8.480;2023-07-13T08:17:29;4.18;;;1.00;;
41629;SDS011;27322;49.488;8.480;2023-07-13T08:19:55;2.80;;;0.70;;
41629;SDS011;27322;49.488;8.480;2023-07-13T08:22:21;4.00;;;0.90;;
41629;SDS011;27322;49.488;8.480;2023-07-13T08:24:47;3.58;;;0.80;;
41629;SDS011;27322;49.488;8.480;2023-07-13T08:27:20;4.47;;;0.90;;
41629;SDS011;27322;49.488;8.480;2023-07-13T08:29:47;9.05;;;1.38;;
41629;SDS011;27322;49.488;8.480;2023-07-13T08:32:13;2.20;;;0.80;;
41629;SDS011;27322;49.488;8.480;2023-07-13T08:34:38;2.33;;;0.80;;
41629;SDS011;27322;49.488;8.480;2023-07-13T08:37:05;3.75;;;0.82;;
41629;SDS011;27322;49.488;8.480;2023-07-13T08:39:31;3.10;;;0.80;;
41629;SDS011;27322;49.488;8.480;2023-07-13T08:42:11;3.92;;;0.80;;
41629;SDS011;27322;49.488;8.480;2023-07-13T08:47:36;5.38;;;0.77;;
41629;SDS011;27322;49.488;8.480;2023-07-13T08:50:05;3.40;;;0.85;;
41629;SDS011;27322;49.488;8.480;2023-07-13T08:52:39;4.70;;;1.02;;
41629;SDS011;27322;49.488;8.480;2023-07-13T08:55:20;1.75;;;0.70;;
41629;SDS011;27322;49.488;8.480;2023-07-13T08:57:51;4.30;;;0.90;;
41629;SDS011;27322;49.488;8.480;2023-07-13T09:00:21;4.22;;;0.90;;
41629;SDS011;27322;49.488;8.480;2023-07-13T09:02:54;3.00;;;0.80;;
41629;SDS011;27322;49.488;8.480;2023-07-13T09:05:43;3.17;;;0.90;;
41629;SDS011;27322;49.488;8.480;2023-07-13T09:10:43;3.00;;;0.80;;
41629;SDS011;27322;49.488;8.480;2023-07-13T09:15:55;2.55;;;0.77;;
41629;SDS011;27322;49.488;8.480;2023-07-13T09:21:03;3.83;;;0.90;;
41629;SDS011;27322;49.488;8.480;2023-07-13T09:23:30;5.63;;;0.90;;
41629;SDS011;27322;49.488;8.480;2023-07-13T09:26:06;6.00;;;1.60;;
41629;SDS011;27322;49.488;8.480;2023-07-13T09:28:42;5.10;;;0.73;;
41629;SDS011;27322;49.488;8.480;2023-07-13T09:31:16;2.78;;;0.80;;
41629;SDS011;27322;49.488;8.480;2023-07-13T09:33:46;3.90;;;0.80;;
41629;SDS011;27322;49.488;8.480;2023-07-13T09:36:20;2.67;;;0.65;;
41629;SDS011;27322;49.488;8.480;2023-07-13T09:38:49;5.15;;;0.95;;
41629;SDS011;27322;49.488;8.480;2023-07-13T09:47:01;2.50;;;0.70;;
41629;SDS011;27322;49.488;8.480;2023-07-13T09:49:28;3.33;;;0.70;;
41629;SDS011;27322;49.488;8.480;2023-07-13T09:52:04;4.30;;;0.98;;
41629;SDS011;27322;49.488;8.480;2023-07-13T09:54:35;3.72;;;0.80;;
41629;SDS011;27322;49.488;8.480;2023-07-13T09:57:01;3.45;;;0.90;;
41629;SDS011;27322;49.488;8.480;2023-07-13T09:59:29;3.40;;;0.70;;
41629;SDS011;27322;49.488;8.480;2023-07-13T10:01:57;2.90;;;0.88;;
41629;SDS011;27322;49.488;8.480;2023-07-13T10:04:30;3.83;;;0.80;;
41629;SDS011;27322;49.488;8.480;2023-07-13T10:07:04;4.03;;;0.80;;
41629;SDS011;27322;49.488;8.480;2023-07-13T10:09:34;3.55;;;0.85;;
41629;SDS011;27322;49.488;8.480;2023-07-13T10:12:00;3.88;;;0.80;;
41629;SDS011;27322;49.488;8.480;2023-07-13T10:14:27;4.03;;;0.70;;
41629;SDS011;27322;49.488;8.480;2023-07-13T10:16:58;3.13;;;0.85;;
41629;SDS011;27322;49.488;8.480;2023-07-13T10:19:28;3.28;;;0.60;;
41629;SDS011;27322;49.488;8.480;2023-07-13T10:22:02;2.85;;;0.60;;
41629;SDS011;27322;49.488;8.480;2023-07-13T10:24:39;3.60;;;0.65;;
41629;SDS011;27322;49.488;8.480;2023-07-13T10:27:16;2.92;;;0.70;;
41629;SDS011;27322;49.488;8.480;2023-07-13T10:29:52;2.88;;;0.70;;
41629;SDS011;27322;49.488;8.480;2023-07-13T10:32:24;2.83;;;0.80;;
41629;SDS011;27322;49.488;8.480;2023-07-13T10:34:50;2.20;;;0.70;;
41629;SDS011;27322;49.488;8.480;2023-07-13T10:37:21;3.60;;;0.77;;
41629;SDS011;27322;49.488;8.480;2023-07-13T10:39:52;5.10;;;0.70;;
41629;SDS011;27322;49.488;8.480;2023-07-13T10:45:00;2.42;;;0.80;;
41629;SDS011;27322;49.488;8.480;2023-07-13T10:47:26;11.75;;;1.00;;
41629;SDS011;27322;49.488;8.480;2023-07-13T10:49:53;2.88;;;0.70;;
41629;SDS011;27322;49.488;8.480;2023-07-13T10:55:34;3.38;;;0.80;;
41629;SDS011;27322;49.488;8.480;2023-07-13T10:58:03;4.75;;;0.80;;
41629;SDS011;27322;49.488;8.480;2023-07-13T11:03:38;2.80;;;0.70;;
41629;SDS011;27322;49.488;8.480;2023-07-13T11:18:44;9.18;;;1.20;;
41629;SDS011;27322;49.488;8.480;2023-07-13T11:21:15;2.75;;;0.80;;
41629;SDS011;27322;49.488;8.480;2023-07-13T11:23:44;4.10;;;1.20;;
41629;SDS011;27322;49.488;8.480;2023-07-13T11:32:10;3.92;;;0.90;;
41629;SDS011;27322;49.488;8.480;2023-07-13T11:34:47;3.45;;;1.13;;
41629;SDS011;27322;49.488;8.480;2023-07-13T11:37:15;4.50;;;0.90;;
41629;SDS011;27322;49.488;8.480;2023-07-13T11:39:43;2.72;;;0.70;;
41629;SDS011;27322;49.488;8.480;2023-07-13T11:42:11;4.13;;;0.90;;
41629;SDS011;27322;49.488;8.480;2023-07-13T11:44:43;3.88;;;0.90;;
41629;SDS011;27322;49.488;8.480;2023-07-13T11:47:11;5.38;;;1.00;;
41629;SDS011;27322;49.488;8.480;2023-07-13T11:49:44;2.78;;;0.70;;
41629;SDS011;27322;49.488;8.480;2023-07-13T11:52:17;2.50;;;0.70;;
41629;SDS011;27322;49.488;8.480;2023-07-13T11:54:48;5.22;;;0.90;;
41629;SDS011;27322;49.488;8.480;2023-07-13T11:57:25;3.40;;;0.75;;
41629;SDS011;27322;49.488;8.480;2023-07-13T11:59:56;1.65;;;0.68;;
41629;SDS011;27322;49.488;8.480;2023-07-13T12:02:29;3.92;;;0.82;;
41629;SDS011;27322;49.488;8.480;2023-07-13T12:05:09;1.80;;;0.60;;
41629;SDS011;27322;49.488;8.480;2023-07-13T12:07:37;3.10;;;0.80;;
41629;SDS011;27322;49.488;8.480;2023-07-13T12:12:54;4.28;;;0.95;;
41629;SDS011;27322;49.488;8.480;2023-07-13T12:15:44;4.72;;;0.80;;
41629;SDS011;27322;49.488;8.480;2023-07-13T12:18:15;2.88;;;0.90;;
41629;SDS011;27322;49.488;8.480;2023-07-13T12:20:44;2.95;;;0.95;;
41629;SDS011;27322;49.488;8.480;2023-07-13T12:25:50;4.40;;;0.90;;
41629;SDS011;27322;49.488;8.480;2023-07-13T12:28:20;3.40;;;1.00;;
41629;SDS011;27322;49.488;8.480;2023-07-13T12:30:48;3.95;;;1.10;;
41629;SDS011;27322;49.488;8.480;2023-07-13T12:33:15;4.03;;;0.82;;
41629;SDS011;27322;49.488;8.480;2023-07-13T12:35:42;3.08;;;1.05;;
41629;SDS011;27322;49.488;8.480;2023-07-13T12:38:12;2.53;;;0.82;;
41629;SDS011;27322;49.488;8.480;2023-07-13T12:40:38;4.10;;;1.05;;
41629;SDS011;27322;49.488;8.480;2023-07-13T12:43:09;2.25;;;0.90;;
41629;SDS011;27322;49.488;8.480;2023-07-13T12:45:39;2.70;;;0.73;;
41629;SDS011;27322;49.488;8.480;2023-07-13T12:48:28;3.15;;;1.00;;
41629;SDS011;27322;49.488;8.480;2023-07-13T12:50:55;2.88;;;1.00;;
41629;SDS011;27322;49.488;8.480;2023-07-13T12:53:22;4.75;;;1.10;;
41629;SDS011;27322;49.488;8.480;2023-07-13T12:55:54;4.97;;;0.90;;
41629;SDS011;27322;49.488;8.480;2023-07-13T12:58:26;6.60;;;1.17;;
41629;SDS011;27322;49.488;8.480;2023-07-13T13:00:54;4.15;;;1.13;;
41629;SDS011;27322;49.488;8.480;2023-07-13T13:03:29;2.30;;;0.70;;
41629;SDS011;27322;49.488;8.480;2023-07-13T13:08:43;2.92;;;0.90;;
41629;SDS011;27322;49.488;8.480;2023-07-13T13:11:10;3.65;;;0.88;;
41629;SDS011;27322;49.488;8.480;2023-07-13T13:13:36;4.43;;;1.10;;
41629;SDS011;27322;49.488;8.480;2023-07-13T13:16:04;5.82;;;1.08;;
41629;SDS011;27322;49.488;8.480;2023-07-13T13:18:36;2.63;;;0.90;;
41629;SDS011;27322;49.488;8.480;2023-07-13T13:21:01;2.88;;;0.80;;
41629;SDS011;27322;49.488;8.480;2023-07-13T13:23:27;3.50;;;1.00;;
41629;SDS011;27322;49.488;8.480;2023-07-13T13:25:53;3.75;;;0.95;;
41629;SDS011;27322;49.488;8.480;2023-07-13T13:28:19;3.75;;;1.10;;
41629;SDS011;27322;49.488;8.480;2023-07-13T13:30:46;6.00;;;1.20;;
41629;SDS011;27322;49.488;8.480;2023-07-13T13:33:14;3.13;;;0.93;;
41629;SDS011;27322;49.488;8.480;2023-07-13T13:35:42;2.10;;;0.80;;
41629;SDS011;27322;49.488;8.480;2023-07-13T13:40:37;4.00;;;0.90;;
41629;SDS011;27322;49.488;8.480;2023-07-13T13:43:04;1.83;;;0.90;;
41629;SDS011;27322;49.488;8.480;2023-07-13T13:45:39;4.03;;;0.90;;
41629;SDS011;27322;49.488;8.480;2023-07-13T13:48:05;4.00;;;0.90;;
41629;SDS011;27322;49.488;8.480;2023-07-13T13:50:30;2.42;;;0.80;;
41629;SDS011;27322;49.488;8.480;2023-07-13T13:52:56;3.45;;;0.77;;
41629;SDS011;27322;49.488;8.480;2023-07-13T13:55:21;4.43;;;0.98;;
41629;SDS011;27322;49.488;8.480;2023-07-13T13:57:49;4.82;;;0.88;;
41629;SDS011;27322;49.488;8.480;2023-07-13T14:00:15;2.83;;;1.00;;
41629;SDS011;27322;49.488;8.480;2023-07-13T14:02:45;4.28;;;1.35;;
41629;SDS011;27322;49.488;8.480;2023-07-13T14:05:13;5.28;;;1.20;;
41629;SDS011;27322;49.488;8.480;2023-07-13T14:07:40;2.70;;;0.80;;
41629;SDS011;27322;49.488;8.480;2023-07-13T14:10:24;3.38;;;0.90;;
41629;SDS011;27322;49.488;8.480;2023-07-13T14:17:52;4.00;;;0.80;;
41629;SDS011;27322;49.488;8.480;2023-07-13T14:20:18;3.92;;;1.00;;
41629;SDS011;27322;49.488;8.480;2023-07-13T14:22:46;4.32;;;1.00;;
41629;SDS011;27322;49.488;8.480;2023-07-13T14:25:12;5.85;;;0.80;;
41629;SDS011;27322;49.488;8.480;2023-07-13T14:27:39;3.17;;;1.10;;
41629;SDS011;27322;49.488;8.480;2023-07-13T14:30:13;4.05;;;1.30;;
41629;SDS011;27322;49.488;8.480;2023-07-13T14:35:07;4.45;;;1.65;;
41629;SDS011;27322;49.488;8.480;2023-07-13T14:37:35;4.47;;;1.15;;
41629;SDS011;27322;49.488;8.480;2023-07-13T14:40:01;4.47;;;1.20;;
41629;SDS011;27322;49.488;8.480;2023-07-13T14:42:26;5.20;;;1.50;;
41629;SDS011;27322;49.488;8.480;2023-07-13T14:44:52;3.72;;;1.10;;
41629;SDS011;27322;49.488;8.480;2023-07-13T14:47:19;2.83;;;0.90;;
41629;SDS011;27322;49.488;8.480;2023-07-13T14:49:45;3.58;;;0.80;;
41629;SDS011;27322;49.488;8.480;2023-07-13T14:52:22;3.58;;;0.85;;
41629;SDS011;27322;49.488;8.480;2023-07-13T14:54:49;3.83;;;1.20;;
41629;SDS011;27322;49.488;8.480;2023-07-13T14:57:18;3.22;;;1.00;;
41629;SDS011;27322;49.488;8.480;2023-07-13T14:59:44;3.03;;;0.82;;
41629;SDS011;27322;49.488;8.480;2023-07-13T15:04:47;4.22;;;0.98;;
41629;SDS011;27322;49.488;8.480;2023-07-13T15:07:13;4.22;;;1.20;;
41629;SDS011;27322;49.488;8.480;2023-07-13T15:09:40;3.85;;;1.15;;
41629;SDS011;27322;49.488;8.480;2023-07-13T15:12:06;4.38;;;1.40;;
41629;SDS011;27322;49.488;8.480;2023-07-13T15:14:32;3.45;;;1.20;;
41629;SDS011;27322;49.488;8.480;2023-07-13T15:16:57;4.43;;;1.25;;
41629;SDS011;27322;49.488;8.480;2023-07-13T15:19:23;3.78;;;1.10;;
41629;SDS011;27322;49.488;8.480;2023-07-13T15:21:50;3.42;;;1.08;;
41629;SDS011;27322;49.488;8.480;2023-07-13T15:24:17;2.65;;;0.95;;
41629;SDS011;27322;49.488;8.480;2023-07-13T15:26:43;7.55;;;1.00;;
41629;SDS011;27322;49.488;8.480;2023-07-13T15:29:10;3.83;;;1.35;;
41629;SDS011;27322;49.488;8.480;2023-07-13T15:31:37;5.15;;;1.30;;
41629;SDS011;27322;49.488;8.480;2023-07-13T15:34:04;5.15;;;1.23;;
41629;SDS011;27322;49.488;8.480;2023-07-13T15:36:36;5.88;;;1.20;;
41629;SDS011;27322;49.488;8.480;2023-07-13T15:39:02;5.70;;;1.10;;
41629;SDS011;27322;49.488;8.480;2023-07-13T15:41:28;2.88;;;0.93;;
41629;SDS011;27322;49.488;8.480;2023-07-13T15:43:54;5.28;;;1.10;;
41629;SDS011;27322;49.488;8.480;2023-07-13T15:46:25;4.75;;;1.17;;
41629;SDS011;27322;49.488;8.480;2023-07-13T15:48:52;3.95;;;1.02;;
41629;SDS011;27322;49.488;8.480;2023-07-13T15:51:28;2.38;;;1.00;;
41629;SDS011;27322;49.488;8.480;2023-07-13T15:54:02;2.65;;;0.82;;
41629;SDS011;27322;49.488;8.480;2023-07-13T15:56:33;3.63;;;1.00;;
41629;SDS011;27322;49.488;8.480;2023-07-13T15:59:01;3.55;;;1.02;;